createdAt,value
2022-09-24T00:00:12.909Z,51.88
2022-09-24T00:02:40.552Z,51.99
2022-09-24T00:05:08.909Z,52.03
2022-09-24T00:07:36.462Z,52.06
2022-09-24T00:10:06.054Z,52.14
2022-09-24T00:12:34.718Z,52.10
2022-09-24T00:15:03.406Z,51.98
2022-09-24T00:17:30.985Z,52.23
2022-09-24T00:19:58.549Z,52.31
2022-09-24T00:22:26.074Z,52.12
2022-09-24T00:25:11.063Z,52.15
2022-09-24T00:27:39.989Z,52.13
2022-09-24T00:30:08.478Z,52.31
2022-09-24T00:32:36.034Z,52.11
2022-09-24T00:35:03.639Z,52.20
2022-09-24T00:37:31.167Z,52.01
2022-09-24T00:39:58.687Z,52.28
2022-09-24T00:42:26.250Z,52.24
2022-09-24T00:44:56.081Z,52.28
2022-09-24T00:47:34.617Z,52.27
2022-09-24T00:50:09.107Z,52.36
2022-09-24T00:52:37.248Z,52.44
2022-09-24T00:55:05.049Z,52.25
2022-09-24T00:57:32.764Z,52.32
2022-09-24T01:00:01.799Z,52.34
2022-09-24T01:02:30.879Z,52.46
2022-09-24T01:04:58.442Z,52.35
2022-09-24T01:07:26.385Z,52.32
2022-09-24T01:09:53.957Z,52.34
2022-09-24T01:12:28.829Z,52.27
2022-09-24T01:15:06.309Z,52.29
2022-09-24T01:17:37.005Z,52.54
2022-09-24T01:20:39.705Z,52.57
2022-09-24T01:23:15.289Z,52.06
2022-09-24T01:25:46.873Z,52.65
2022-09-24T01:28:30.267Z,52.48
2022-09-24T01:31:00.516Z,52.40
2022-09-24T01:33:28.245Z,52.31
2022-09-24T01:35:56.888Z,52.21
2022-09-24T01:38:26.796Z,52.52
2022-09-24T01:40:54.432Z,52.46
2022-09-24T01:43:25.386Z,52.49
2022-09-24T01:45:52.938Z,52.45
2022-09-24T01:48:22.454Z,52.54
2022-09-24T01:50:52.786Z,52.58
2022-09-24T01:53:29.963Z,52.58
2022-09-24T01:55:59.877Z,52.50
2022-09-24T01:58:29.244Z,52.55
2022-09-24T02:00:58.976Z,52.47
2022-09-24T02:03:29.754Z,52.39
2022-09-24T02:05:59.585Z,52.47
2022-09-24T02:08:29.342Z,52.45
2022-09-24T02:10:58.642Z,52.67
2022-09-24T02:13:27.594Z,52.68
2022-09-24T02:15:56.532Z,52.61
2022-09-24T02:18:25.020Z,52.64
2022-09-24T02:20:54.217Z,52.84
2022-09-24T02:23:21.858Z,52.69
2022-09-24T02:25:51.550Z,52.70
2022-09-24T02:28:19.229Z,52.65
2022-09-24T02:30:48.541Z,52.33
2022-09-24T02:33:30.002Z,52.77
2022-09-24T02:35:59.005Z,52.50
2022-09-24T02:38:26.566Z,52.62
2022-09-24T02:40:54.531Z,52.64
2022-09-24T02:43:22.229Z,52.65
2022-09-24T02:45:49.759Z,52.49
2022-09-24T02:48:17.301Z,52.65
2022-09-24T02:50:44.849Z,52.65
2022-09-24T02:53:13.874Z,52.67
2022-09-24T02:55:41.412Z,52.70
2022-09-24T02:58:08.974Z,52.75
2022-09-24T03:00:36.573Z,52.64
2022-09-24T03:03:04.276Z,52.67
2022-09-24T03:05:31.928Z,52.79
2022-09-24T03:08:00.051Z,52.67
2022-09-24T03:10:29.024Z,52.85
2022-09-24T03:12:56.725Z,52.62
2022-09-24T03:15:24.282Z,52.63
2022-09-24T03:17:51.901Z,52.79
2022-09-24T03:20:19.421Z,52.62
2022-09-24T03:22:47.900Z,52.57
2022-09-24T03:25:15.579Z,52.69
2022-09-24T03:27:44.477Z,52.72
2022-09-24T03:30:30.557Z,52.75
2022-09-24T03:32:58.104Z,52.64
2022-09-24T03:35:25.662Z,52.73
2022-09-24T03:37:53.233Z,52.76
2022-09-24T03:40:20.830Z,52.79
2022-09-24T03:42:49.775Z,52.78
2022-09-24T03:45:17.533Z,52.93
2022-09-24T03:47:45.069Z,52.78
2022-09-24T03:50:12.639Z,52.64
2022-09-24T03:52:40.293Z,52.74
2022-09-24T03:55:08.757Z,52.78
2022-09-24T03:57:36.292Z,52.85
2022-09-24T04:00:05.819Z,52.61
2022-09-24T04:02:33.391Z,52.83
2022-09-24T04:05:01.002Z,52.80
2022-09-24T04:07:28.520Z,52.89
2022-09-24T04:09:56.106Z,52.64
2022-09-24T04:12:23.730Z,52.88
2022-09-24T04:14:51.281Z,52.95
2022-09-24T04:17:20.192Z,52.81
2022-09-24T04:19:47.725Z,52.78
2022-09-24T04:22:15.273Z,52.87
2022-09-24T04:24:42.799Z,52.75
2022-09-24T04:27:10.382Z,52.73
2022-09-24T04:29:38.006Z,52.85
2022-09-24T04:32:05.557Z,52.66
2022-09-24T04:34:34.488Z,52.69
2022-09-24T04:37:02.028Z,52.80
2022-09-24T04:39:29.558Z,52.72
2022-09-24T04:41:57.119Z,52.71
2022-09-24T04:44:24.684Z,52.87
2022-09-24T04:46:52.313Z,52.68
2022-09-24T04:49:19.935Z,52.80
2022-09-24T04:51:48.898Z,52.90
2022-09-24T04:54:18.099Z,53.04
2022-09-24T04:56:45.634Z,52.93
2022-09-24T04:59:13.186Z,52.90
2022-09-24T05:01:40.855Z,52.94
2022-09-24T05:04:08.556Z,52.95
2022-09-24T05:06:36.207Z,52.90
2022-09-24T05:09:08.931Z,52.74
2022-09-24T05:11:39.272Z,52.60
2022-09-24T05:14:07.148Z,52.95
2022-09-24T05:16:35.062Z,52.95
2022-09-24T05:19:04.801Z,52.96
2022-09-24T05:21:32.459Z,52.92
2022-09-24T05:24:00.173Z,52.99
2022-09-24T05:26:46.401Z,52.81
2022-09-24T05:29:14.044Z,52.95
2022-09-24T05:31:41.692Z,52.84
2022-09-24T05:34:09.317Z,53.00
2022-09-24T05:36:37.063Z,52.86
2022-09-24T05:39:04.875Z,52.76
2022-09-24T05:41:33.966Z,52.96
2022-09-24T05:44:01.985Z,52.93
2022-09-24T05:46:29.980Z,52.91
2022-09-24T05:48:57.877Z,52.92
2022-09-24T05:51:25.482Z,52.89
2022-09-24T05:53:53.004Z,52.75
2022-09-24T05:56:20.549Z,52.82
2022-09-24T05:58:50.964Z,52.82
2022-09-24T06:01:18.483Z,52.97
2022-09-24T06:03:46.031Z,52.99
2022-09-24T06:06:13.588Z,52.73
2022-09-24T06:08:41.352Z,52.92
2022-09-24T06:11:09.508Z,52.98
2022-09-24T06:13:37.059Z,52.91
2022-09-24T06:16:07.410Z,52.77
2022-09-24T06:18:35.550Z,52.99
2022-09-24T06:21:03.757Z,52.86
2022-09-24T06:23:31.473Z,52.97
2022-09-24T06:25:58.998Z,52.88
2022-09-24T06:28:26.547Z,53.13
2022-09-24T06:30:54.319Z,52.82
2022-09-24T06:33:23.347Z,52.95
2022-09-24T06:35:50.932Z,52.82
2022-09-24T06:38:19.042Z,53.02
2022-09-24T06:40:48.336Z,52.94
2022-09-24T06:43:18.161Z,52.96
2022-09-24T06:45:45.805Z,52.85
2022-09-24T06:48:14.049Z,53.01
2022-09-24T06:50:43.635Z,53.03
2022-09-24T06:53:11.365Z,53.01
2022-09-24T06:55:39.266Z,52.94
2022-09-24T06:58:07.806Z,53.01
2022-09-24T07:00:35.575Z,52.92
2022-09-24T07:03:03.317Z,53.05
2022-09-24T07:05:30.847Z,53.02
2022-09-24T07:07:59.737Z,52.90
2022-09-24T07:10:27.951Z,53.04
2022-09-24T07:12:55.538Z,52.89
2022-09-24T07:15:23.157Z,52.96
2022-09-24T07:17:50.868Z,52.99
2022-09-24T07:20:18.966Z,53.09
2022-09-24T07:22:46.488Z,53.00
2022-09-24T07:25:15.426Z,53.07
2022-09-24T07:27:43.084Z,53.05
2022-09-24T07:30:13.622Z,52.79
2022-09-24T07:32:41.165Z,52.93
2022-09-24T07:35:09.094Z,53.06
2022-09-24T07:37:36.621Z,53.02
2022-09-24T07:40:04.268Z,52.99
2022-09-24T07:42:33.196Z,52.86
2022-09-24T07:45:00.877Z,52.93
2022-09-24T07:47:28.469Z,53.25
2022-09-24T07:49:55.998Z,54.35
2022-09-24T07:52:23.574Z,53.45
2022-09-24T07:54:52.258Z,53.45
2022-09-24T07:57:19.824Z,53.29
2022-09-24T07:59:48.697Z,53.38
2022-09-24T08:02:17.220Z,53.60
2022-09-24T08:04:44.831Z,53.32
2022-09-24T08:07:12.532Z,53.11
2022-09-24T08:09:40.076Z,53.83
2022-09-24T08:12:07.901Z,53.60
2022-09-24T08:14:35.428Z,53.46
2022-09-24T08:17:04.340Z,53.38
2022-09-24T08:19:33.192Z,53.52
2022-09-24T08:22:00.802Z,53.23
2022-09-24T08:24:28.497Z,53.41
2022-09-24T08:26:56.051Z,53.29
2022-09-24T08:29:23.590Z,53.56
2022-09-24T08:31:51.206Z,53.36
2022-09-24T08:34:20.152Z,53.23
2022-09-24T08:36:47.737Z,53.39
2022-09-24T08:39:15.547Z,53.23
2022-09-24T08:41:53.576Z,53.36
2022-09-24T08:44:36.652Z,53.47
2022-09-24T08:47:22.321Z,53.22
2022-09-24T08:49:53.901Z,53.05
2022-09-24T08:52:30.547Z,53.34
2022-09-24T08:54:58.093Z,53.38
2022-09-24T08:57:26.097Z,53.36
2022-09-24T08:59:53.858Z,53.21
2022-09-24T09:02:35.150Z,53.15
2022-09-24T09:05:07.835Z,53.14
2022-09-24T09:07:39.727Z,53.33
2022-09-24T09:10:10.828Z,53.18
2022-09-24T09:12:39.883Z,53.25
2022-09-24T09:15:08.258Z,53.17
2022-09-24T09:17:42.077Z,53.20
2022-09-24T09:20:17.014Z,53.44
2022-09-24T09:22:46.019Z,54.51
2022-09-24T09:25:21.777Z,53.62
2022-09-24T09:27:54.393Z,53.37
2022-09-24T09:30:22.729Z,53.25
2022-09-24T09:33:01.961Z,53.08
2022-09-24T09:35:35.384Z,53.31
2022-09-24T09:38:05.521Z,53.33
2022-09-24T09:40:35.097Z,53.22
2022-09-24T09:43:06.137Z,53.18
2022-09-24T09:45:37.093Z,53.23
2022-09-24T09:48:04.705Z,53.16
2022-09-24T09:50:36.812Z,53.24
2022-09-24T09:53:04.819Z,53.27
2022-09-24T09:55:33.224Z,53.16
2022-09-24T09:58:16.821Z,53.04
2022-09-24T10:00:46.916Z,53.34
2022-09-24T10:03:22.846Z,53.19
2022-09-24T10:05:57.957Z,53.33
2022-09-24T10:08:25.655Z,53.56
2022-09-24T10:10:55.237Z,53.81
2022-09-24T10:13:22.830Z,53.86
2022-09-24T10:15:50.912Z,53.31
2022-09-24T10:18:18.502Z,53.62
2022-09-24T10:20:48.131Z,53.93
2022-09-24T10:23:19.652Z,53.82
2022-09-24T10:25:51.659Z,53.57
2022-09-24T10:28:40.819Z,53.13
2022-09-24T10:31:12.470Z,53.04
2022-09-24T10:33:40.793Z,52.75
2022-09-24T10:36:09.415Z,52.50
2022-09-24T10:38:38.299Z,52.31
2022-09-24T10:41:15.936Z,51.99
2022-09-24T10:43:51.250Z,52.31
2022-09-24T10:46:28.550Z,51.75
2022-09-24T10:48:59.082Z,51.87
2022-09-24T10:51:30.808Z,51.28
2022-09-24T10:54:10.349Z,51.35
2022-09-24T10:56:43.559Z,51.04
2022-09-24T10:59:33.614Z,50.87
2022-09-24T11:02:10.550Z,50.71
2022-09-24T11:04:46.599Z,50.82
2022-09-24T11:07:27.161Z,50.96
2022-09-24T11:09:57.894Z,50.63
2022-09-24T11:12:27.845Z,50.57
2022-09-24T11:15:05.199Z,50.63
2022-09-24T11:17:34.261Z,50.46
2022-09-24T11:20:22.110Z,50.53
2022-09-24T11:22:57.585Z,50.42
2022-09-24T11:25:31.520Z,50.30
2022-09-24T11:28:05.683Z,50.24
2022-09-24T11:30:36.055Z,50.25
2022-09-24T11:33:11.698Z,50.32
2022-09-24T11:35:53.795Z,50.09
2022-09-24T11:38:23.700Z,50.01
2022-09-24T11:41:10.208Z,49.79
2022-09-24T11:43:49.349Z,49.89
2022-09-24T11:46:23.859Z,50.06
2022-09-24T11:48:58.900Z,50.15
2022-09-24T11:51:30.287Z,50.49
2022-09-24T11:53:59.548Z,50.52
2022-09-24T11:56:31.962Z,50.35
2022-09-24T11:59:01.065Z,50.46
2022-09-24T12:01:29.852Z,50.61
2022-09-24T12:03:58.411Z,50.72
2022-09-24T12:06:28.575Z,51.15
2022-09-24T12:08:57.654Z,51.27
2022-09-24T12:11:28.134Z,51.21
2022-09-24T12:13:59.085Z,51.28
2022-09-24T12:16:27.946Z,51.60
2022-09-24T12:18:57.493Z,51.23
2022-09-24T12:21:28.048Z,51.36
2022-09-24T12:24:02.643Z,51.83
2022-09-24T12:26:31.122Z,51.87
2022-09-24T12:29:34.003Z,51.79
2022-09-24T12:32:21.715Z,51.72
2022-09-24T12:34:52.065Z,52.23
2022-09-24T12:37:21.757Z,52.81
2022-09-24T12:39:51.278Z,52.32
2022-09-24T12:42:18.816Z,52.14
2022-09-24T12:44:49.866Z,52.19
2022-09-24T12:47:20.137Z,52.06
2022-09-24T12:49:50.195Z,52.12
2022-09-24T12:52:18.448Z,52.19
2022-09-24T12:54:45.997Z,52.48
2022-09-24T12:57:14.854Z,52.65
2022-09-24T12:59:51.266Z,53.78
2022-09-24T13:02:20.293Z,53.54
2022-09-24T13:04:52.135Z,53.63
2022-09-24T13:07:33.986Z,53.21
2022-09-24T13:10:23.898Z,54.84
2022-09-24T13:12:51.899Z,54.91
2022-09-24T13:15:28.329Z,55.58
2022-09-24T13:18:04.249Z,57.02
2022-09-24T13:20:32.142Z,56.21
2022-09-24T13:23:00.644Z,56.60
2022-09-24T13:25:28.690Z,57.59
2022-09-24T13:28:01.384Z,57.58
2022-09-24T13:30:38.093Z,58.31
2022-09-24T13:33:10.818Z,58.28
2022-09-24T13:35:43.373Z,59.56
2022-09-24T13:38:16.916Z,59.25
2022-09-24T13:40:46.257Z,61.34
2022-09-24T13:43:15.818Z,60.96
2022-09-24T13:45:45.114Z,60.69
2022-09-24T13:48:16.765Z,59.07
2022-09-24T13:50:45.609Z,59.79
2022-09-24T13:53:17.575Z,58.07
2022-09-24T13:55:45.842Z,56.29
2022-09-24T13:58:27.687Z,54.54
2022-09-24T14:00:57.413Z,58.78
2022-09-24T14:03:26.581Z,55.75
2022-09-24T14:05:54.161Z,53.94
2022-09-24T14:08:22.377Z,56.80
2022-09-24T14:10:50.977Z,56.33
2022-09-24T14:13:21.612Z,55.36
2022-09-24T14:15:57.433Z,53.66
2022-09-24T14:18:25.677Z,54.08
2022-09-24T14:20:56.491Z,52.95
2022-09-24T14:23:25.328Z,55.49
2022-09-24T14:25:52.887Z,54.56
2022-09-24T14:28:20.456Z,52.90
2022-09-24T14:30:52.203Z,53.76
2022-09-24T14:33:21.746Z,52.68
2022-09-24T14:35:50.007Z,53.84
2022-09-24T14:38:19.373Z,53.40
2022-09-24T14:40:48.361Z,52.63
2022-09-24T14:43:18.780Z,54.53
2022-09-24T14:45:46.936Z,53.46
2022-09-24T14:48:19.779Z,52.55
2022-09-24T14:50:48.704Z,56.26
2022-09-24T14:53:22.159Z,57.03
2022-09-24T14:55:49.810Z,53.12
2022-09-24T14:58:24.878Z,55.23
2022-09-24T15:00:55.390Z,54.18
2022-09-24T15:03:27.822Z,53.91
2022-09-24T15:06:08.236Z,54.28
2022-09-24T15:08:36.050Z,53.63
2022-09-24T15:11:15.302Z,53.36
2022-09-24T15:13:42.855Z,53.46
2022-09-24T15:16:19.377Z,55.06
2022-09-24T15:18:58.675Z,53.92
2022-09-24T15:21:27.856Z,53.54
2022-09-24T15:23:56.825Z,53.53
2022-09-24T15:26:26.482Z,53.37
2022-09-24T15:28:55.987Z,53.29
2022-09-24T15:31:24.157Z,54.80
2022-09-24T15:33:51.834Z,53.73
2022-09-24T15:36:21.105Z,54.70
2022-09-24T15:38:50.053Z,54.00
2022-09-24T15:41:17.724Z,53.85
2022-09-24T15:43:45.353Z,53.54
2022-09-24T15:46:13.035Z,53.95
2022-09-24T15:48:40.628Z,54.37
2022-09-24T15:51:14.977Z,53.61
2022-09-24T15:53:43.141Z,53.73
2022-09-24T15:56:12.252Z,54.64
2022-09-24T15:58:40.054Z,54.48
2022-09-24T16:01:07.843Z,53.65
2022-09-24T16:03:35.382Z,53.63
2022-09-24T16:06:03.311Z,53.19
2022-09-24T16:08:30.871Z,53.21
2022-09-24T16:10:58.724Z,53.01
2022-09-24T16:13:27.752Z,52.95
2022-09-24T16:15:55.384Z,52.46
2022-09-24T16:18:25.914Z,52.68
2022-09-24T16:20:53.541Z,52.67
2022-09-24T16:23:21.093Z,52.76
2022-09-24T16:25:55.824Z,52.62
2022-09-24T16:28:23.481Z,52.73
2022-09-24T16:30:52.488Z,53.02
2022-09-24T16:33:20.060Z,52.83
2022-09-24T16:35:47.757Z,53.38
2022-09-24T16:38:20.273Z,53.29
2022-09-24T16:40:51.964Z,53.32
2022-09-24T16:43:19.697Z,53.20
2022-09-24T16:45:47.333Z,53.17
2022-09-24T16:48:16.580Z,54.21
2022-09-24T16:50:44.173Z,53.70
2022-09-24T16:53:11.873Z,53.91
2022-09-24T16:55:39.481Z,53.55
2022-09-24T16:58:07.027Z,53.67
2022-09-24T17:00:34.612Z,53.94
2022-09-24T17:03:02.244Z,53.71
2022-09-24T17:05:34.087Z,53.86
2022-09-24T17:08:01.982Z,53.90
2022-09-24T17:10:51.604Z,53.80
2022-09-24T17:13:40.391Z,53.84
2022-09-24T17:16:28.378Z,54.05
2022-09-24T17:18:56.117Z,54.67
2022-09-24T17:21:25.001Z,54.02
2022-09-24T17:23:52.648Z,54.83
2022-09-24T17:26:21.285Z,54.38
2022-09-24T17:28:51.668Z,54.67
2022-09-24T17:31:21.258Z,54.42
2022-09-24T17:33:48.978Z,54.27
2022-09-24T17:36:16.657Z,54.29
2022-09-24T17:38:45.571Z,55.12
2022-09-24T17:41:13.808Z,54.18
2022-09-24T17:43:41.899Z,54.39
2022-09-24T17:46:14.141Z,54.81
2022-09-24T17:48:44.374Z,54.52
2022-09-24T17:51:12.946Z,54.76
2022-09-24T17:53:40.623Z,54.69
2022-09-24T17:56:11.326Z,54.89
2022-09-24T17:58:39.609Z,54.88
2022-09-24T18:01:08.261Z,54.67
2022-09-24T18:03:35.838Z,54.70
2022-09-24T18:06:03.641Z,54.39
2022-09-24T18:08:31.219Z,54.31
2022-09-24T18:11:02.741Z,54.92
2022-09-24T18:13:34.927Z,55.07
2022-09-24T18:16:04.135Z,54.64
2022-09-24T18:18:31.735Z,54.51
2022-09-24T18:21:01.076Z,54.83
2022-09-24T18:23:28.993Z,54.97
2022-09-24T18:25:57.144Z,55.50
2022-09-24T18:28:25.179Z,54.86
2022-09-24T18:31:06.020Z,54.99
2022-09-24T18:33:33.743Z,55.14
2022-09-24T18:36:05.138Z,55.00
2022-09-24T18:38:33.030Z,54.71
2022-09-24T18:41:01.707Z,54.90
2022-09-24T18:43:31.135Z,55.21
2022-09-24T18:46:05.121Z,55.06
2022-09-24T18:48:33.345Z,54.73
2022-09-24T18:51:01.157Z,54.65
2022-09-24T18:53:31.373Z,54.63
2022-09-24T18:55:59.773Z,54.88
2022-09-24T18:58:27.330Z,54.69
2022-09-24T19:00:59.098Z,55.08
2022-09-24T19:03:28.330Z,54.62
2022-09-24T19:05:56.950Z,55.61
2022-09-24T19:08:24.811Z,54.91
2022-09-24T19:10:53.253Z,55.09
2022-09-24T19:13:25.987Z,55.30
2022-09-24T19:15:54.009Z,55.53
2022-09-24T19:18:21.890Z,55.18
2022-09-24T19:20:50.926Z,55.24
2022-09-24T19:23:18.513Z,55.28
2022-09-24T19:25:46.102Z,55.39
2022-09-24T19:28:13.734Z,55.35
2022-09-24T19:30:42.005Z,55.75
2022-09-24T19:33:09.805Z,55.99
2022-09-24T19:35:37.649Z,55.33
2022-09-24T19:38:06.605Z,55.57
2022-09-24T19:40:34.274Z,55.60
2022-09-24T19:43:03.030Z,55.52
2022-09-24T19:45:31.213Z,55.36
2022-09-24T19:47:59.279Z,55.54
2022-09-24T19:50:26.965Z,55.08
2022-09-24T19:52:55.869Z,55.17
2022-09-24T19:55:28.520Z,55.26
2022-09-24T19:57:56.433Z,55.40
2022-09-24T20:00:24.986Z,55.28
2022-09-24T20:02:52.663Z,55.14
2022-09-24T20:05:20.409Z,54.78
2022-09-24T20:07:49.433Z,55.68
2022-09-24T20:10:16.973Z,55.45
2022-09-24T20:12:48.942Z,55.33
2022-09-24T20:15:16.586Z,54.91
2022-09-24T20:17:44.124Z,54.83
2022-09-24T20:20:11.658Z,55.20
2022-09-24T20:22:39.243Z,54.71
2022-09-24T20:25:07.797Z,54.73
2022-09-24T20:27:52.812Z,54.95
2022-09-24T20:30:23.827Z,54.94
2022-09-24T20:32:51.572Z,54.94
2022-09-24T20:35:19.201Z,55.10
2022-09-24T20:37:47.334Z,55.20
2022-09-24T20:40:15.120Z,54.92
2022-09-24T20:42:42.740Z,55.12
2022-09-24T20:45:10.546Z,54.91
2022-09-24T20:47:39.522Z,54.59
2022-09-24T20:50:08.317Z,54.75
2022-09-24T20:52:36.021Z,54.63
2022-09-24T20:55:03.656Z,55.02
2022-09-24T20:57:31.309Z,54.64
2022-09-24T20:59:58.889Z,54.89
2022-09-24T21:02:26.568Z,54.62
2022-09-24T21:04:55.623Z,54.90
2022-09-24T21:07:23.174Z,54.79
2022-09-24T21:09:50.766Z,54.67
2022-09-24T21:12:18.336Z,54.79
2022-09-24T21:14:45.891Z,54.46
2022-09-24T21:17:13.888Z,54.92
2022-09-24T21:19:41.630Z,54.90
2022-09-24T21:22:10.710Z,54.67
2022-09-24T21:24:39.497Z,54.78
2022-09-24T21:27:07.852Z,54.78
2022-09-24T21:29:35.409Z,55.17
2022-09-24T21:32:03.530Z,54.74
2022-09-24T21:34:31.170Z,54.50
2022-09-24T21:36:58.728Z,54.96
2022-09-24T21:39:28.410Z,54.97
2022-09-24T21:41:59.175Z,54.77
2022-09-24T21:44:31.910Z,54.40
2022-09-24T21:46:59.599Z,54.47
2022-09-24T21:49:27.470Z,54.78
2022-09-24T21:51:57.576Z,55.11
2022-09-24T21:54:25.338Z,54.79
2022-09-24T21:56:55.321Z,54.44
2022-09-24T21:59:40.560Z,54.91
2022-09-24T22:02:08.580Z,54.83
2022-09-24T22:04:36.301Z,54.85
2022-09-24T22:07:03.906Z,55.32
2022-09-24T22:09:32.148Z,54.85
2022-09-24T22:12:01.665Z,54.61
2022-09-24T22:14:29.392Z,54.37
2022-09-24T22:16:57.230Z,54.83
2022-09-24T22:19:24.836Z,54.95
2022-09-24T22:21:52.769Z,54.72
2022-09-24T22:24:20.376Z,55.04
2022-09-24T22:26:48.265Z,54.61
2022-09-24T22:29:17.244Z,55.07
2022-09-24T22:31:44.842Z,55.25
2022-09-24T22:34:29.790Z,55.16
2022-09-24T22:36:57.327Z,55.46
2022-09-24T22:39:24.986Z,55.33
2022-09-24T22:41:52.644Z,56.07
2022-09-24T22:44:21.529Z,56.03
2022-09-24T22:46:49.057Z,56.00
2022-09-24T22:49:16.705Z,56.42
2022-09-24T22:51:44.474Z,56.36
2022-09-24T22:54:12.784Z,56.78
2022-09-24T22:56:40.457Z,56.97
2022-09-24T22:59:08.003Z,56.88
2022-09-24T23:01:40.295Z,57.14
2022-09-24T23:04:08.184Z,56.80
2022-09-24T23:06:35.711Z,57.04
2022-09-24T23:09:03.290Z,57.41
2022-09-24T23:11:31.516Z,57.44
2022-09-24T23:14:00.048Z,57.81
2022-09-24T23:16:28.601Z,57.64
2022-09-24T23:18:58.516Z,57.73
2022-09-24T23:21:27.634Z,57.87
2022-09-24T23:23:55.479Z,57.85
2022-09-24T23:26:23.807Z,57.92
2022-09-24T23:28:52.669Z,58.04
2022-09-24T23:31:21.910Z,58.07
2022-09-24T23:33:49.633Z,58.21
2022-09-24T23:36:18.730Z,58.13
2022-09-24T23:38:46.314Z,58.42
2022-09-24T23:41:14.346Z,58.40
2022-09-24T23:43:42.281Z,58.49
2022-09-24T23:46:10.090Z,58.56
2022-09-24T23:48:38.038Z,58.61
2022-09-24T23:51:05.657Z,58.76
2022-09-24T23:53:34.842Z,58.75
2022-09-24T23:56:03.080Z,58.75
2022-09-24T23:58:30.591Z,58.96
